Time;durP1;ratioP1;P1;durP2;ratioP2;P2;SDS_P1;SDS_P2;PMS_P1;PMS_P2;Temp;Humidity;BMP_temperature;BMP_pressure;BME280_temperature;BME280_humidity;BME280_pressure;Samples;Min_cycle;Max_cycle;Signal;HPM_P1;HPM_P2
2021/09/05 00:01:36;;;;;;;7.08;3.35;;;;;;;13.57;62.15;101627.04;1639163;86;21053;-80
2021/09/05 00:04:02;;;;;;;4.95;3.83;;;;;;;13.56;62.17;101625.32;1638482;86;21460;-80
2021/09/05 00:06:30;;;;;;;5.35;3.80;;;;;;;13.57;62.26;101630.94;1638455;87;21068;-80
2021/09/05 00:08:56;;;;;;;5.85;3.50;;;;;;;13.55;62.20;101623.60;1639113;86;21084;-80
2021/09/05 00:11:23;;;;;;;4.62;3.12;;;;;;;13.54;62.27;101623.62;1638777;84;21060;-80
2021/09/05 00:13:49;;;;;;;5.58;3.52;;;;;;;13.53;62.30;101630.99;1651151;86;21144;-80
2021/09/05 00:16:16;;;;;;;5.47;3.70;;;;;;;13.50;62.33;101630.63;1643017;86;21374;-80
2021/09/05 00:18:42;;;;;;;6.85;3.47;;;;;;;13.48;62.37;101628.48;1639219;86;21341;-80
2021/09/05 00:21:11;;;;;;;4.92;3.65;;;;;;;13.46;62.41;101632.84;1639681;87;21060;-80
2021/09/05 00:23:37;;;;;;;9.23;3.47;;;;;;;13.46;62.48;101634.13;1640003;87;21117;-80
2021/09/05 00:26:04;;;;;;;4.67;3.70;;;;;;;13.46;62.50;101634.58;1639357;86;21064;-80
2021/09/05 00:28:31;;;;;;;7.35;3.33;;;;;;;13.45;62.55;101635.02;1638793;86;21074;-80
2021/09/05 00:30:57;;;;;;;5.60;3.37;;;;;;;13.44;62.57;101640.23;1644808;86;21076;-80
2021/09/05 00:33:24;;;;;;;4.67;3.10;;;;;;;13.43;62.59;101643.27;1653763;86;21080;-80
2021/09/05 00:35:53;;;;;;;5.30;3.20;;;;;;;13.43;62.58;101643.27;1641067;86;21107;-80
2021/09/05 00:38:19;;;;;;;4.83;3.35;;;;;;;13.42;62.66;101640.68;1639831;86;21108;-80
2021/09/05 00:40:46;;;;;;;5.60;3.25;;;;;;;13.40;62.64;101647.63;1654114;86;21005;-80
2021/09/05 00:43:12;;;;;;;4.72;3.30;;;;;;;13.40;62.72;101656.28;1662244;85;21076;-80
2021/09/05 00:45:39;;;;;;;;;;;;;;;13.40;62.73;101651.53;1641587;86;21124;-80
2021/09/05 00:48:11;;;;;;;4.25;3.00;;;;;;;13.40;63.11;101648.49;1653253;86;20201;-80
2021/09/05 00:50:38;;;;;;;7.70;3.47;;;;;;;13.39;62.83;101656.30;1658548;86;21132;-80
2021/09/05 00:53:07;;;;;;;6.28;3.55;;;;;;;13.37;62.76;101657.62;1652069;86;21066;-80
2021/09/05 00:55:37;;;;;;;6.55;3.52;;;;;;;13.35;62.88;101658.08;1644787;86;21052;-80
2021/09/05 00:58:02;;;;;;;5.60;3.27;;;;;;;13.35;62.90;101658.51;1656972;86;20973;-80
2021/09/05 01:00:31;;;;;;;5.78;3.40;;;;;;;13.34;62.92;101655.48;1662318;86;21103;-80
2021/09/05 01:02:57;;;;;;;4.42;3.45;;;;;;;13.33;62.94;101656.37;1609621;87;21149;-80
2021/09/05 01:05:23;;;;;;;4.75;3.40;;;;;;;13.32;63.04;101655.95;1626760;87;21067;-80
2021/09/05 01:07:52;;;;;;;8.70;3.15;;;;;;;13.32;63.04;101658.54;1657007;86;21056;-80
2021/09/05 01:10:18;;;;;;;4.85;3.40;;;;;;;13.31;63.04;101660.28;1639810;87;21102;-80
2021/09/05 01:12:45;;;;;;;5.25;3.15;;;;;;;13.31;63.05;101664.61;1643209;84;21041;-80
2021/09/05 01:15:11;;;;;;;5.75;3.55;;;;;;;13.30;63.11;101666.79;1658033;86;21069;-80
2021/09/05 01:17:39;;;;;;;4.42;2.83;;;;;;;13.31;63.17;101668.52;1639054;86;21087;-80
2021/09/05 01:20:09;;;;;;;10.30;3.72;;;;;;;13.30;63.14;101668.09;1639196;86;21050;-80
2021/09/05 01:22:36;;;;;;;4.30;3.50;;;;;;;13.28;63.17;101668.11;1639438;87;21047;-80
2021/09/05 01:25:04;;;;;;;4.95;3.02;;;;;;;13.27;63.20;101672.88;1637579;86;21065;-80
2021/09/05 01:27:30;;;;;;;5.45;3.50;;;;;;;13.27;63.29;101674.17;1648530;86;21108;-80
2021/09/05 01:29:57;;;;;;;6.15;3.60;;;;;;;13.24;63.21;101674.20;1658112;86;21108;-80
2021/09/05 01:32:23;;;;;;;5.03;3.20;;;;;;;13.22;63.29;101678.11;1644865;86;21088;-80
2021/09/05 01:34:51;;;;;;;4.10;3.10;;;;;;;13.20;63.33;101682.91;1638282;87;21060;-80
2021/09/05 01:37:18;;;;;;;4.00;3.20;;;;;;;13.18;63.37;101679.45;1638894;87;21080;-80
2021/09/05 01:39:44;;;;;;;5.08;2.72;;;;;;;13.17;63.40;101679.89;1639924;87;21460;-80
2021/09/05 01:42:10;;;;;;;3.67;2.83;;;;;;;13.16;63.49;101676.02;1653419;86;21088;-80
2021/09/05 01:44:37;;;;;;;7.15;3.15;;;;;;;13.15;63.49;101681.61;1653212;86;313570;-80
2021/09/05 01:47:03;;;;;;;4.70;2.98;;;;;;;13.15;63.51;101680.75;1658046;86;21385;-80
2021/09/05 01:49:35;;;;;;;4.97;3.20;;;;;;;13.15;63.55;101684.65;1647854;86;21056;-80
2021/09/05 01:52:02;;;;;;;4.10;2.80;;;;;;;13.12;63.55;101682.94;1643785;86;21090;-80
2021/09/05 01:54:31;;;;;;;6.12;2.90;;;;;;;13.09;63.54;101682.97;1654206;86;21127;-80
2021/09/05 01:56:57;;;;;;;4.55;2.98;;;;;;;13.06;63.61;101686.89;1651207;86;21071;-80
2021/09/05 01:59:24;;;;;;;4.20;3.08;;;;;;;13.02;63.53;101695.58;1639841;87;21036;-80
2021/09/05 02:01:58;;;;;;;5.28;2.70;;;;;;;13.00;63.70;101691.31;1639476;87;21084;-80
2021/09/05 02:04:24;;;;;;;4.12;2.47;;;;;;;13.00;63.75;101698.63;1642725;86;21052;-80
2021/09/05 02:06:50;;;;;;;5.75;3.17;;;;;;;12.99;63.76;101695.64;1639922;87;21352;-80
2021/09/05 02:09:17;;;;;;;9.53;2.92;;;;;;;12.98;63.81;101692.62;1639879;87;20984;-80
2021/09/05 02:11:43;;;;;;;6.95;2.80;;;;;;;12.99;63.82;101690.89;1644882;85;21573;-80
2021/09/05 02:14:09;;;;;;;3.92;2.80;;;;;;;12.96;63.79;101698.70;1679374;84;21059;-80
2021/09/05 02:16:37;;;;;;;5.90;3.08;;;;;;;12.93;63.81;101701.74;1665334;86;20998;-80
2021/09/05 02:19:04;;;;;;;5.78;2.87;;;;;;;12.92;63.83;101699.16;1676237;84;21092;-80
2021/09/05 02:21:30;;;;;;;3.92;2.35;;;;;;;12.90;63.90;101704.80;1664037;85;20999;-80
2021/09/05 02:24:00;;;;;;;4.37;2.67;;;;;;;12.88;63.97;101704.81;1658170;84;21380;-80
2021/09/05 02:26:26;;;;;;;6.30;2.05;;;;;;;12.89;63.98;101710.87;1665552;86;21530;-80
2021/09/05 02:28:53;;;;;;;4.83;2.42;;;;;;;12.90;64.09;101709.55;1665692;84;21052;-80
2021/09/05 02:31:19;;;;;;;4.45;2.27;;;;;;;12.91;64.05;101713.88;1678878;84;21050;-80
2021/09/05 02:33:45;;;;;;;6.65;2.50;;;;;;;12.91;64.05;101707.82;1664721;84;21547;-80
2021/09/05 02:36:14;;;;;;;3.30;2.00;;;;;;;12.90;64.12;101713.89;1682127;85;21105;-80
2021/09/05 02:38:41;;;;;;;4.78;2.42;;;;;;;12.90;64.10;101709.55;1677163;84;21078;-80
2021/09/05 02:41:07;;;;;;;3.35;1.92;;;;;;;12.90;64.15;101713.45;1664880;86;21300;-80
2021/09/05 02:43:33;;;;;;;3.80;2.30;;;;;;;12.89;64.20;101707.84;1665885;86;20984;-80
2021/09/05 02:46:00;;;;;;;3.95;2.30;;;;;;;12.90;64.21;101707.40;1665811;85;21511;-80
2021/09/05 02:48:26;;;;;;;3.52;2.27;;;;;;;12.87;64.17;101703.09;1666447;84;21474;-80
2021/09/05 02:50:53;;;;;;;6.40;2.47;;;;;;;12.86;64.26;101704.40;1669626;85;21065;-80
2021/09/05 02:53:19;;;;;;;3.00;2.08;;;;;;;12.87;64.28;101710.02;1678454;85;21483;-80
2021/09/05 02:55:45;;;;;;;3.97;3.17;;;;;;;12.86;64.35;101712.19;1678803;84;21107;-80
2021/09/05 02:58:11;;;;;;;4.70;1.98;;;;;;;12.85;64.30;101716.52;1665734;86;21322;-80
2021/09/05 03:00:38;;;;;;;3.00;2.30;;;;;;;12.83;64.33;101715.67;1665465;86;21665;-80
2021/09/05 03:03:04;;;;;;;4.58;2.10;;;;;;;12.84;64.41;101716.53;1663034;84;21102;-80
2021/09/05 03:05:38;;;;;;;3.92;2.47;;;;;;;12.86;64.43;101719.98;1674115;84;21587;-80
2021/09/05 03:08:04;;;;;;;3.35;2.15;;;;;;;12.85;64.45;101718.25;1670507;84;21611;-80
2021/09/05 03:10:30;;;;;;;4.67;2.40;;;;;;;12.86;64.50;101722.57;1667132;85;21563;-80
2021/09/05 03:12:58;;;;;;;3.60;2.15;;;;;;;12.88;64.52;101723.42;1686101;83;21031;-80
2021/09/05 03:15:24;;;;;;;3.72;2.33;;;;;;;12.88;64.56;101729.48;1686510;84;20947;-80
2021/09/05 03:17:51;;;;;;;3.33;2.15;;;;;;;12.87;64.58;101727.75;1680716;83;21637;-80
2021/09/05 03:20:17;;;;;;;3.08;2.08;;;;;;;12.88;64.64;101728.61;1686293;84;21610;-80
2021/09/05 03:22:43;;;;;;;2.90;2.10;;;;;;;12.87;64.63;101726.89;1686240;83;21141;-80
2021/09/05 03:25:11;;;;;;;3.00;2.00;;;;;;;12.88;64.64;101726.88;1687158;83;26483;-80
2021/09/05 03:27:37;;;;;;;4.00;2.35;;;;;;;12.87;64.68;101729.48;1687743;84;21049;-80
2021/09/05 03:30:05;;;;;;;2.80;1.92;;;;;;;12.85;64.73;101721.71;1687199;84;21593;-80
2021/09/05 03:32:31;;;;;;;3.92;2.33;;;;;;;12.87;64.79;101724.30;1704238;83;20986;-80
2021/09/05 03:34:58;;;;;;;5.00;2.55;;;;;;;12.87;64.82;101720.40;1686443;83;21430;-80
2021/09/05 03:37:24;;;;;;;4.78;2.27;;;;;;;12.86;64.86;101725.16;1699419;83;21146;-80
2021/09/05 03:39:50;;;;;;;4.15;2.37;;;;;;;12.85;64.83;101725.61;1687939;84;21010;-80
2021/09/05 03:42:17;;;;;;;3.33;2.25;;;;;;;12.83;64.84;101729.94;1687718;84;21831;-80
2021/09/05 03:44:43;;;;;;;3.95;2.45;;;;;;;12.82;64.89;101730.81;1691153;83;20930;-80
2021/09/05 03:47:10;;;;;;;2.65;2.35;;;;;;;12.81;64.94;101735.58;1695159;83;21046;-80
2021/09/05 03:49:42;;;;;;;2.92;2.30;;;;;;;12.80;65.02;101731.70;1702001;84;21110;-80
2021/09/05 03:52:08;;;;;;;5.12;2.45;;;;;;;12.80;65.03;101738.19;1700647;83;21126;-80
2021/09/05 03:54:35;;;;;;;4.22;2.15;;;;;;;12.80;65.06;101739.05;1686749;83;21511;-80
2021/09/05 03:57:01;;;;;;;3.52;2.30;;;;;;;12.79;65.07;101743.81;1686239;84;21510;-80
2021/09/05 03:59:28;;;;;;;2.52;2.17;;;;;;;12.79;65.14;101741.66;1687240;83;21443;-80
2021/09/05 04:01:54;;;;;;;5.72;2.50;;;;;;;12.79;65.12;101745.55;1695866;83;22492;-80
2021/09/05 04:04:20;;;;;;;4.47;2.50;;;;;;;12.79;65.17;101754.20;1687918;83;21074;-80
2021/09/05 04:07:00;;;;;;;3.60;2.33;;;;;;;12.79;65.21;101752.04;1685899;83;21645;-80
2021/09/05 04:10:08;;;;;;;3.55;2.30;;;;;;;12.76;65.19;101758.11;1685190;83;21746;-80
2021/09/05 04:11:46;;;;;;;4.40;3.02;;;;;;;12.75;65.26;101757.69;1686172;83;21055;-80
2021/09/05 04:14:12;;;;;;;2.35;2.15;;;;;;;12.76;65.28;101762.00;1665470;84;21550;-80
2021/09/05 04:16:39;;;;;;;3.27;2.15;;;;;;;12.63;65.39;101740.03;1667627;84;26894;-80
2021/09/05 04:19:05;;;;;;;3.30;2.62;;;;;;;12.75;65.40;101767.20;1664442;86;21491;-80
2021/09/05 04:21:32;;;;;;;3.75;2.35;;;;;;;12.75;65.44;101767.20;1665465;86;22259;-80
2021/09/05 04:23:58;;;;;;;2.27;2.08;;;;;;;12.77;65.51;101773.25;1675078;84;21421;-80
2021/09/05 04:26:26;;;;;;;3.77;3.00;;;;;;;12.77;65.48;101771.95;1671136;84;21058;-80
2021/09/05 04:28:52;;;;;;;4.35;2.60;;;;;;;12.78;65.55;101770.64;1665452;86;21409;-80
2021/09/05 04:31:19;;;;;;;4.22;2.85;;;;;;;12.78;65.55;101773.23;1667816;84;21074;-80
2021/09/05 04:33:45;;;;;;;3.30;2.67;;;;;;;12.80;65.59;101775.83;1675517;84;22189;-80
2021/09/05 04:36:11;;;;;;;10.65;2.90;;;;;;;12.81;65.64;101773.66;1682314;85;21128;-80
2021/09/05 04:38:38;;;;;;;5.40;2.42;;;;;;;12.81;65.68;101775.81;1679890;84;21522;-80
2021/09/05 04:41:04;;;;;;;3.10;2.00;;;;;;;12.81;65.65;101774.52;1694095;84;21571;-80
2021/09/05 04:43:31;;;;;;;4.00;2.90;;;;;;;12.82;65.69;101787.06;1691916;84;21535;-80
2021/09/05 04:45:57;;;;;;;4.58;2.60;;;;;;;12.81;65.76;101784.90;1665492;86;21479;-80
2021/09/05 04:48:24;;;;;;;4.00;2.42;;;;;;;12.83;65.76;101788.34;1675885;84;21026;-80
2021/09/05 04:50:50;;;;;;;3.12;2.33;;;;;;;12.84;65.80;101787.48;1668422;84;21082;-80
2021/09/05 04:53:16;;;;;;;4.70;2.50;;;;;;;12.85;65.79;101792.23;1666708;84;21594;-80
2021/09/05 04:55:43;;;;;;;3.12;2.15;;;;;;;12.86;65.83;101784.88;1671028;82;426923;-80
2021/09/05 04:58:09;;;;;;;3.50;2.60;;;;;;;12.88;65.90;101788.32;1694873;84;21734;-80
2021/09/05 05:00:36;;;;;;;3.17;2.47;;;;;;;12.89;65.91;101804.32;1696682;84;21560;-80
2021/09/05 05:03:02;;;;;;;4.40;2.70;;;;;;;12.91;65.90;101794.79;1671602;84;21063;-80
2021/09/05 05:05:39;;;;;;;3.87;2.60;;;;;;;12.90;65.93;101803.02;1690109;84;22123;-80
2021/09/05 05:08:05;;;;;;;7.80;2.90;;;;;;;12.93;65.99;101804.73;1676386;84;21642;-80
2021/09/05 05:10:34;;;;;;;5.58;2.70;;;;;;;12.94;65.97;101805.16;1665281;86;22191;-80
2021/09/05 05:13:00;;;;;;;5.37;2.72;;;;;;;12.98;66.01;101812.05;1674385;83;21520;-80
2021/09/05 05:15:27;;;;;;;5.60;2.75;;;;;;;13.01;65.95;101806.80;1676927;84;22254;-80
2021/09/05 05:17:55;;;;;;;3.47;2.20;;;;;;;13.04;66.00;101808.08;1663607;86;22276;-80
2021/09/05 05:20:21;;;;;;;4.53;2.30;;;;;;;13.09;66.07;101808.91;1664272;86;21036;-80
2021/09/05 05:22:47;;;;;;;5.47;2.95;;;;;;;13.15;66.07;101812.77;1673290;84;21130;-80
2021/09/05 05:25:16;;;;;;;3.25;2.25;;;;;;;13.21;66.09;101820.98;1696440;84;20999;-80
2021/09/05 05:27:42;;;;;;;5.53;2.35;;;;;;;13.25;66.05;101820.95;1696751;84;21518;-80
2021/09/05 05:30:09;;;;;;;3.67;2.58;;;;;;;13.29;66.06;101822.22;1684326;84;21051;-80
2021/09/05 05:32:35;;;;;;;6.92;2.72;;;;;;;13.33;66.05;101823.92;1678689;84;21520;-80
2021/09/05 05:35:02;;;;;;;3.72;2.35;;;;;;;13.39;66.06;101818.68;1678911;84;21623;-80
2021/09/05 05:37:29;;;;;;;3.83;2.30;;;;;;;13.49;66.10;101823.78;1665379;86;21022;-80
2021/09/05 05:39:55;;;;;;;2.75;2.40;;;;;;;13.59;66.10;101821.94;1665442;84;21074;-80
2021/09/05 05:42:22;;;;;;;3.02;2.30;;;;;;;13.70;66.14;101827.04;1664756;84;21079;-80
2021/09/05 05:44:51;;;;;;;3.25;2.77;;;;;;;13.82;66.16;101829.08;1669310;84;21034;-80
2021/09/05 05:47:18;;;;;;;3.67;2.83;;;;;;;13.96;66.12;101828.08;1682613;84;21058;-80
2021/09/05 05:49:46;;;;;;;4.50;2.08;;;;;;;14.09;66.13;101826.60;1691193;84;21045;-80
2021/09/05 05:52:15;;;;;;;3.83;2.27;;;;;;;14.28;66.16;101827.70;1673018;84;21535;-80
2021/09/05 05:54:41;;;;;;;3.45;2.67;;;;;;;14.45;66.09;101831.85;1663998;85;20999;-80
2021/09/05 05:57:10;;;;;;;3.98;2.42;;;;;;;14.54;66.00;101838.25;1663625;86;21050;-80
2021/09/05 05:59:37;;;;;;;4.35;2.87;;;;;;;14.58;65.94;101836.43;1663973;86;26925;-80
2021/09/05 06:02:04;;;;;;;2.75;2.50;;;;;;;14.66;66.04;101836.33;1671050;84;21036;-80
2021/09/05 06:04:30;;;;;;;3.92;2.65;;;;;;;14.74;65.97;101841.86;1680184;85;21068;-80
2021/09/05 06:06:58;;;;;;;2.80;2.50;;;;;;;14.78;65.90;101840.94;1668768;84;21423;-80
2021/09/05 06:09:25;;;;;;;5.25;2.60;;;;;;;14.86;65.86;101844.30;1678774;84;21038;-80
2021/09/05 06:11:51;;;;;;;2.45;2.10;;;;;;;15.03;66.00;101844.06;1665573;86;21589;-80
2021/09/05 06:14:18;;;;;;;3.27;2.00;;;;;;;15.23;65.98;101846.33;1682892;85;21059;-80
2021/09/05 06:16:44;;;;;;;3.08;2.22;;;;;;;15.41;65.80;101848.65;1689529;83;21107;-80
2021/09/05 06:19:10;;;;;;;3.77;2.02;;;;;;;15.55;65.81;101841.47;1704251;83;21042;-80
2021/09/05 06:21:40;;;;;;;4.37;2.20;;;;;;;15.75;65.83;101850.70;1704076;84;21045;-80
2021/09/05 06:24:06;;;;;;;4.00;2.35;;;;;;;16.00;65.81;101839.38;1696255;83;21090;-80
2021/09/05 06:26:32;;;;;;;2.58;2.17;;;;;;;16.28;65.93;101843.59;1697550;83;21031;-80
2021/09/05 06:28:59;;;;;;;5.80;1.67;;;;;;;16.61;65.74;101848.57;1704397;83;21117;-80
2021/09/05 06:31:25;;;;;;;3.50;1.70;;;;;;;16.89;65.71;101849.70;1704490;83;21062;-80
2021/09/05 06:33:51;;;;;;;2.83;2.20;;;;;;;17.13;65.59;101846.97;1694023;83;21040;-81
2021/09/05 06:36:17;;;;;;;3.37;2.40;;;;;;;17.37;65.52;101851.59;1685882;83;21156;-81
2021/09/05 06:38:44;;;;;;;2.45;1.85;;;;;;;17.62;65.39;101857.52;1675654;84;21050;-81
2021/09/05 06:41:16;;;;;;;3.92;1.80;;;;;;;17.76;65.26;101851.48;1685899;84;21061;-81
2021/09/05 06:43:43;;;;;;;7.10;1.77;;;;;;;17.95;65.29;101858.41;1686212;84;21079;-81
2021/09/05 06:46:09;;;;;;;2.37;1.80;;;;;;;18.20;65.27;101860.74;1687024;83;21106;-81
2021/09/05 06:48:35;;;;;;;1.52;1.42;;;;;;;18.45;65.21;101869.62;1686472;84;21119;-81
2021/09/05 06:51:02;;;;;;;2.55;1.60;;;;;;;18.64;64.90;101867.37;1686019;84;21074;-81
2021/09/05 06:53:28;;;;;;;3.20;2.45;;;;;;;18.71;64.83;101873.28;1686106;84;21122;-81
2021/09/05 06:55:58;;;;;;;2.27;1.60;;;;;;;18.90;64.91;101869.63;1689349;83;21027;-81
2021/09/05 06:58:25;;;;;;;2.05;1.85;;;;;;;19.08;64.56;101880.41;1687442;84;20980;-81
2021/09/05 07:00:52;;;;;;;4.55;1.70;;;;;;;19.20;64.61;101881.80;1688168;84;21422;-81
2021/09/05 07:03:18;;;;;;;2.22;1.57;;;;;;;19.46;64.60;101886.18;1689637;83;21083;-81
2021/09/05 07:05:45;;;;;;;3.47;1.60;;;;;;;19.67;64.44;101888.59;1686786;84;21070;-81
2021/09/05 07:08:12;;;;;;;3.70;1.60;;;;;;;19.89;64.37;101884.75;1686037;84;21166;-81
2021/09/05 07:10:39;;;;;;;1.70;1.35;;;;;;;20.10;64.21;101890.57;1687435;84;21063;-81
2021/09/05 07:13:05;;;;;;;2.27;1.80;;;;;;;20.25;63.98;101889.17;1681125;83;21409;-81
2021/09/05 07:15:40;;;;;;;3.60;1.70;;;;;;;20.43;63.87;101891.99;1696283;84;21036;-81
2021/09/05 07:18:06;;;;;;;1.37;1.27;;;;;;;20.63;63.73;101896.52;1674601;84;21119;-81
2021/09/05 07:20:33;;;;;;;1.77;1.45;;;;;;;20.75;63.64;101905.26;1665083;84;21058;-81
2021/09/05 07:22:59;;;;;;;2.27;1.57;;;;;;;20.87;63.39;101902.59;1664345;86;25251;-81
2021/09/05 07:25:27;;;;;;;1.72;1.42;;;;;;;20.97;63.17;101907.04;1681297;85;21077;-81
2021/09/05 07:27:54;;;;;;;2.55;1.65;;;;;;;20.93;63.23;101902.81;1684179;84;21496;-81
2021/09/05 07:30:23;;;;;;;2.47;1.85;;;;;;;20.96;63.15;101907.50;1678989;84;21515;-81
2021/09/05 07:32:50;;;;;;;1.80;1.42;;;;;;;21.14;63.08;101905.92;1665387;84;21126;-81
2021/09/05 07:35:16;;;;;;;1.65;1.55;;;;;;;21.37;63.13;101908.50;1664906;84;21589;-81
2021/09/05 07:37:47;;;;;;;2.05;1.60;;;;;;;21.74;63.38;101914.44;1678235;84;21477;-81
2021/09/05 07:40:16;;;;;;;2.47;1.57;;;;;;;22.22;63.52;101917.22;1665478;86;21063;-81
2021/09/05 07:42:43;;;;;;;1.27;1.17;;;;;;;22.60;63.07;101919.90;1666657;84;20921;-81
2021/09/05 07:45:11;;;;;;;2.55;1.65;;;;;;;23.03;62.45;101926.23;1680118;84;20939;-81
2021/09/05 07:47:38;;;;;;;2.40;1.40;;;;;;;23.19;61.54;101930.78;1666615;86;21580;-81
2021/09/05 07:50:07;;;;;;;1.98;1.42;;;;;;;23.29;60.90;101932.05;1672044;85;20902;-81
2021/09/05 07:52:33;;;;;;;1.80;1.60;;;;;;;23.32;60.30;101929.27;1678668;84;20952;-81
2021/09/05 07:55:00;;;;;;;1.85;1.42;;;;;;;23.13;59.84;101930.61;1675890;84;20923;-81
2021/09/05 07:57:26;;;;;;;1.60;1.17;;;;;;;22.82;59.33;101933.85;1666242;86;21512;-81
2021/09/05 07:59:52;;;;;;;4.78;1.62;;;;;;;22.41;59.50;101930.41;1668557;84;21068;-81
2021/09/05 08:02:18;;;;;;;1.90;1.65;;;;;;;22.01;59.33;101932.59;1684423;84;21648;-81
2021/09/05 08:04:45;;;;;;;1.72;1.52;;;;;;;21.76;59.42;101938.92;1665343;86;21062;-81
2021/09/05 08:07:11;;;;;;;2.90;1.87;;;;;;;21.66;59.27;101936.27;1681231;84;21060;-81
2021/09/05 08:09:38;;;;;;;3.87;1.75;;;;;;;21.61;59.23;101941.33;1665540;86;21362;-81
2021/09/05 08:12:06;;;;;;;1.45;1.25;;;;;;;21.67;59.08;101942.39;1665316;86;21450;-81
2021/09/05 08:14:34;;;;;;;1.82;1.20;;;;;;;21.57;58.74;101939.28;1678556;85;20987;-81
2021/09/05 08:17:00;;;;;;;4.12;1.47;;;;;;;21.47;58.42;101942.74;1680656;83;21046;-81
2021/09/05 08:19:27;;;;;;;1.40;1.30;;;;;;;21.28;58.34;101939.62;1690973;84;21138;-81
2021/09/05 08:21:53;;;;;;;1.40;1.10;;;;;;;21.17;58.37;101946.58;1680585;83;21482;-81
2021/09/05 08:24:33;;;;;;;7.15;1.60;;;;;;;21.12;58.13;101940.18;1683062;84;328224;-81
2021/09/05 08:27:00;;;;;;;1.77;1.40;;;;;;;21.06;58.03;101941.73;1687074;83;21397;-81
2021/09/05 08:29:26;;;;;;;1.82;1.72;;;;;;;21.03;57.80;101945.80;1686763;83;21110;-81
2021/09/05 08:31:53;;;;;;;2.77;1.77;;;;;;;21.02;57.60;101952.43;1685965;84;21119;-81
2021/09/05 08:34:19;;;;;;;1.82;1.42;;;;;;;20.88;57.42;101949.46;1691886;83;21062;-81
2021/09/05 08:36:46;;;;;;;9.90;1.32;;;;;;;20.87;57.36;101946.43;1687218;84;20991;-81
2021/09/05 08:39:12;;;;;;;1.70;1.10;;;;;;;21.12;57.15;101947.22;1685158;84;21051;-81
2021/09/05 08:41:39;;;;;;;1.12;1.02;;;;;;;21.36;56.99;101955.47;1687676;83;21051;-81
2021/09/05 08:44:05;;;;;;;3.27;1.50;;;;;;;21.67;57.46;101952.92;1693989;83;21077;-81
2021/09/05 08:46:31;;;;;;;1.55;1.27;;;;;;;22.16;57.98;101964.91;1691241;83;21127;-81
2021/09/05 08:49:03;;;;;;;4.15;1.50;;;;;;;22.68;58.29;101953.37;1687070;84;20972;-81
2021/09/05 08:51:30;;;;;;;3.17;1.50;;;;;;;23.46;58.22;101962.42;1688785;84;20925;-81
2021/09/05 08:53:58;;;;;;;3.62;1.55;;;;;;;24.35;57.97;101966.32;1689996;83;20951;-81
2021/09/05 08:56:26;;;;;;;1.47;1.37;;;;;;;25.12;57.03;101958.21;1695505;83;20909;-81
2021/09/05 08:58:52;;;;;;;2.52;1.70;;;;;;;25.57;56.11;101958.23;1688898;84;20976;-81
2021/09/05 09:01:28;;;;;;;3.95;1.65;;;;;;;25.17;54.95;101960.98;1688359;84;21248;-81
2021/09/05 09:04:13;;;;;;;2.58;1.35;;;;;;;23.88;54.83;101961.28;1688124;83;20920;-81
2021/09/05 09:06:41;;;;;;;5.03;1.55;;;;;;;22.93;55.12;101959.70;1697310;83;20911;-81
2021/09/05 09:09:09;;;;;;;2.37;1.52;;;;;;;22.38;55.10;101968.77;1692971;83;20955;-81
2021/09/05 09:11:54;;;;;;;2.65;1.12;;;;;;;21.87;54.83;101959.52;1689099;83;20975;-81
2021/09/05 09:14:43;;;;;;;2.92;1.20;;;;;;;21.44;54.67;101965.69;1691221;83;20942;-81
2021/09/05 09:17:09;;;;;;;1.07;0.98;;;;;;;20.99;54.42;101967.01;1694603;83;20915;-81
2021/09/05 09:19:35;;;;;;;4.37;1.50;;;;;;;20.57;54.25;101967.70;1695152;83;20904;-81
2021/09/05 09:22:05;;;;;;;1.47;1.27;;;;;;;20.27;54.21;101972.27;1689805;84;20929;-81
2021/09/05 09:24:43;;;;;;;2.08;1.32;;;;;;;20.03;54.08;101970.02;1687185;83;20916;-81
2021/09/05 09:27:11;;;;;;;1.17;1.07;;;;;;;19.86;54.00;101970.17;1688753;84;21388;-81
2021/09/05 09:29:39;;;;;;;2.00;1.55;;;;;;;19.71;53.83;101971.11;1663977;85;20971;-81
2021/09/05 09:32:17;;;;;;;2.25;1.45;;;;;;;19.59;53.68;101969.33;1688474;83;20938;-81
2021/09/05 09:34:46;;;;;;;1.70;1.25;;;;;;;19.45;53.59;101967.95;1704817;83;20938;-81
2021/09/05 09:37:20;;;;;;;1.65;1.25;;;;;;;19.36;53.60;101960.83;1705515;83;20939;-81
2021/09/05 09:39:49;;;;;;;2.00;1.37;;;;;;;19.33;53.40;101960.92;1701012;82;20900;-81
2021/09/05 09:42:39;;;;;;;1.75;1.40;;;;;;;19.22;53.30;101957.80;1694136;83;20908;-81
2021/09/05 09:45:15;;;;;;;2.37;1.62;;;;;;;19.15;53.28;101964.99;1688551;85;20923;-81
2021/09/05 09:47:50;;;;;;;6.25;1.30;;;;;;;19.02;53.10;101961.02;1688285;83;20975;-81
2021/09/05 09:50:22;;;;;;;9.63;1.35;;;;;;;18.90;53.04;101952.20;1693208;83;21523;-81
2021/09/05 09:52:57;;;;;;;1.32;1.17;;;;;;;18.86;53.11;101954.05;1686982;84;21034;-81
2021/09/05 09:55:23;;;;;;;2.20;1.50;;;;;;;18.80;53.03;101961.64;1687102;84;20939;-81
2021/09/05 09:57:51;;;;;;;3.80;1.10;;;;;;;18.76;52.96;101956.08;1687282;83;20963;-81
2021/09/05 10:00:18;;;;;;;2.25;1.30;;;;;;;18.75;52.95;101955.67;1683504;83;20915;-81
2021/09/05 10:02:46;;;;;;;1.65;1.07;;;;;;;18.76;52.85;101955.22;1684040;83;21058;-81
2021/09/05 10:05:15;;;;;;;4.40;1.50;;;;;;;18.74;52.80;101962.26;1687111;84;20971;-81
2021/09/05 10:07:45;;;;;;;2.17;1.22;;;;;;;18.68;52.79;101950.22;1687238;83;21392;-81
2021/09/05 10:10:19;;;;;;;1.50;1.30;;;;;;;18.73;52.83;101952.68;1688828;85;20951;-82
2021/09/05 10:12:45;;;;;;;3.70;1.32;;;;;;;18.76;52.78;101953.91;1691894;83;20918;-81
2021/09/05 10:15:12;;;;;;;3.10;1.45;;;;;;;18.77;52.69;101948.62;1677096;83;21104;-81
2021/09/05 10:17:46;;;;;;;1.75;1.60;;;;;;;18.80;52.64;101950.30;1676613;84;21032;-81
2021/09/05 10:20:16;;;;;;;1.60;1.17;;;;;;;18.79;52.63;101947.27;1676497;84;21104;-81
2021/09/05 10:22:43;;;;;;;1.57;1.20;;;;;;;18.83;52.78;101947.13;1671174;84;20965;-81
2021/09/05 10:25:10;;;;;;;5.35;2.12;;;;;;;18.92;52.67;101945.15;1661885;85;20913;-81
2021/09/05 10:27:39;;;;;;;3.45;1.32;;;;;;;18.93;52.46;101939.86;1661822;84;21409;-81
2021/09/05 10:30:21;;;;;;;1.98;1.40;;;;;;;18.94;52.63;101942.03;1660930;85;21286;-81
2021/09/05 10:32:57;;;;;;;7.78;1.50;;;;;;;18.95;52.61;101939.81;1661650;85;21116;-81
2021/09/05 10:35:29;;;;;;;;;;;;;;;18.95;52.44;101935.88;1663956;84;21067;-81
2021/09/05 10:38:18;;;;;;;1.72;1.20;;;;;;;18.94;52.46;101943.34;1660846;85;20200;-81
2021/09/05 10:40:53;;;;;;;2.87;1.30;;;;;;;18.94;52.53;101937.64;1662760;85;20921;-81
2021/09/05 10:43:21;;;;;;;1.72;1.35;;;;;;;18.91;52.42;101944.29;1662621;84;21075;-81
2021/09/05 10:45:55;;;;;;;1.77;1.35;;;;;;;18.87;52.38;101944.42;1660279;85;21142;-81
2021/09/05 10:48:45;;;;;;;2.15;1.30;;;;;;;18.82;52.40;101932.31;1646069;84;20905;-81
2021/09/05 10:51:17;;;;;;;3.30;1.25;;;;;;;18.88;52.55;101939.14;1656619;86;21107;-81
2021/09/05 10:54:09;;;;;;;2.52;1.30;;;;;;;18.92;52.35;101943.84;1663113;85;21457;-81
2021/09/05 10:56:43;;;;;;;1.72;1.30;;;;;;;18.89;52.27;101942.16;1662648;86;20922;-81
2021/09/05 10:59:19;;;;;;;7.10;1.00;;;;;;;18.88;52.31;101941.76;1670983;84;20918;-81
2021/09/05 11:01:50;;;;;;;2.30;1.20;;;;;;;18.89;52.23;101944.78;1642333;85;20971;-81
2021/09/05 11:04:21;;;;;;;2.15;1.50;;;;;;;18.94;52.41;101940.72;1658700;84;21004;-81
2021/09/05 11:07:06;;;;;;;2.25;1.47;;;;;;;19.03;52.35;101937.83;1656764;84;20905;-81
2021/09/05 11:09:39;;;;;;;3.10;1.20;;;;;;;19.09;52.36;101935.02;1662201;86;20932;-81
2021/09/05 11:12:33;;;;;;;1.50;1.30;;;;;;;19.13;52.25;101937.50;1661268;85;20916;-81
2021/09/05 11:15:01;;;;;;;1.37;1.02;;;;;;;19.13;52.23;101936.64;1670181;84;20928;-81
2021/09/05 11:17:52;;;;;;;1.67;1.20;;;;;;;19.13;52.19;101934.02;1689115;84;20884;-81
2021/09/05 11:20:18;;;;;;;2.52;1.32;;;;;;;19.14;52.19;101930.05;1687618;84;21054;-81
2021/09/05 11:22:48;;;;;;;1.67;1.20;;;;;;;19.17;52.23;101931.27;1686844;83;21622;-82
2021/09/05 11:25:24;;;;;;;1.70;1.60;;;;;;;19.20;52.18;101935.56;1688412;84;20956;-81
2021/09/05 11:28:09;;;;;;;1.80;1.40;;;;;;;19.23;52.11;101935.91;1688648;83;21054;-81
2021/09/05 11:30:39;;;;;;;1.85;1.10;;;;;;;19.27;52.19;101925.70;1687538;83;21078;-81
2021/09/05 11:33:08;;;;;;;2.05;1.17;;;;;;;19.33;52.21;101928.99;1687665;83;21011;-80